sensor_id;sensor_type;location;lat;lon;timestamp;temperature;humidity
3086;DHT22;52812;48.960;9.108;2022-09-14T00:02:22;18.50;99.90
3086;DHT22;52812;48.960;9.108;2022-09-14T00:04:47;18.40;99.90
3086;DHT22;52812;48.960;9.108;2022-09-14T00:07:13;18.40;99.90
3086;DHT22;52812;48.960;9.108;2022-09-14T00:09:38;18.40;99.90
3086;DHT22;52812;48.960;9.108;2022-09-14T00:12:04;18.50;99.90
3086;DHT22;52812;48.960;9.108;2022-09-14T00:14:30;18.50;99.90
3086;DHT22;52812;48.960;9.108;2022-09-14T00:16:55;18.50;99.90
3086;DHT22;52812;48.960;9.108;2022-09-14T00:19:23;18.40;99.90
3086;DHT22;52812;48.960;9.108;2022-09-14T00:21:59;18.40;99.90
3086;DHT22;52812;48.960;9.108;2022-09-14T00:24:27;18.40;99.90
3086;DHT22;52812;48.960;9.108;2022-09-14T00:26:54;18.40;99.90
3086;DHT22;52812;48.960;9.108;2022-09-14T00:29:20;18.40;99.90
3086;DHT22;52812;48.960;9.108;2022-09-14T00:31:46;18.50;99.90
3086;DHT22;52812;48.960;9.108;2022-09-14T00:34:13;18.50;99.90
3086;DHT22;52812;48.960;9.108;2022-09-14T00:36:42;18.60;99.90
3086;DHT22;52812;48.960;9.108;2022-09-14T00:39:09;18.60;99.90
3086;DHT22;52812;48.960;9.108;2022-09-14T00:41:37;18.60;99.90
3086;DHT22;52812;48.960;9.108;2022-09-14T00:44:07;18.50;99.90
3086;DHT22;52812;48.960;9.108;2022-09-14T00:46:53;18.50;99.90
3086;DHT22;52812;48.960;9.108;2022-09-14T00:49:26;18.50;99.90
3086;DHT22;52812;48.960;9.108;2022-09-14T00:52:17;18.60;99.90
3086;DHT22;52812;48.960;9.108;2022-09-14T00:54:59;18.50;99.90
3086;DHT22;52812;48.960;9.108;2022-09-14T00:57:28;18.50;99.90
3086;DHT22;52812;48.960;9.108;2022-09-14T00:59:55;18.50;99.90
3086;DHT22;52812;48.960;9.108;2022-09-14T01:02:22;18.50;99.90
3086;DHT22;52812;48.960;9.108;2022-09-14T01:04:50;18.50;99.90
3086;DHT22;52812;48.960;9.108;2022-09-14T01:07:37;18.60;99.90
3086;DHT22;52812;48.960;9.108;2022-09-14T01:10:31;18.60;99.90
3086;DHT22;52812;48.960;9.108;2022-09-14T01:13:26;18.60;99.90
3086;DHT22;52812;48.960;9.108;2022-09-14T01:16:21;18.60;99.90
3086;DHT22;52812;48.960;9.108;2022-09-14T01:18:54;18.60;99.90
3086;DHT22;52812;48.960;9.108;2022-09-14T01:21:27;18.60;99.90
3086;DHT22;52812;48.960;9.108;2022-09-14T01:37:13;18.50;99.90
3086;DHT22;52812;48.960;9.108;2022-09-14T01:39:52;18.50;99.90
3086;DHT22;52812;48.960;9.108;2022-09-14T01:42:22;18.40;99.90
3086;DHT22;52812;48.960;9.108;2022-09-14T01:44:53;18.30;99.90
3086;DHT22;52812;48.960;9.108;2022-09-14T01:47:25;18.30;99.90
3086;DHT22;52812;48.960;9.108;2022-09-14T01:49:56;18.20;99.90
3086;DHT22;52812;48.960;9.108;2022-09-14T01:52:26;18.10;99.90
3086;DHT22;52812;48.960;9.108;2022-09-14T01:55:00;18.10;99.90
3086;DHT22;52812;48.960;9.108;2022-09-14T02:00:19;17.90;99.90
3086;DHT22;52812;48.960;9.108;2022-09-14T02:07:57;17.60;99.90
3086;DHT22;52812;48.960;9.108;2022-09-14T02:10:23;17.60;99.90
3086;DHT22;52812;48.960;9.108;2022-09-14T02:12:49;17.60;99.90
3086;DHT22;52812;48.960;9.108;2022-09-14T02:15:15;17.50;99.90
3086;DHT22;52812;48.960;9.108;2022-09-14T02:17:42;17.40;99.90
3086;DHT22;52812;48.960;9.108;2022-09-14T02:20:13;17.40;99.90
3086;DHT22;52812;48.960;9.108;2022-09-14T02:22:39;17.40;99.90
3086;DHT22;52812;48.960;9.108;2022-09-14T02:25:05;17.40;99.90
3086;DHT22;52812;48.960;9.108;2022-09-14T02:27:31;17.40;99.90
3086;DHT22;52812;48.960;9.108;2022-09-14T02:29:57;17.30;99.90
3086;DHT22;52812;48.960;9.108;2022-09-14T02:36:22;17.30;99.90
3086;DHT22;52812;48.960;9.108;2022-09-14T02:38:36;17.30;99.90
3086;DHT22;52812;48.960;9.108;2022-09-14T02:43:55;17.30;99.90
3086;DHT22;52812;48.960;9.108;2022-09-14T02:46:45;17.30;99.90
3086;DHT22;52812;48.960;9.108;2022-09-14T02:49:21;17.30;99.90
3086;DHT22;52812;48.960;9.108;2022-09-14T02:51:57;17.20;99.90
3086;DHT22;52812;48.960;9.108;2022-09-14T02:54:51;17.20;99.90
3086;DHT22;52812;48.960;9.108;2022-09-14T02:57:17;17.20;99.90
3086;DHT22;52812;48.960;9.108;2022-09-14T02:59:43;17.20;99.90
3086;DHT22;52812;48.960;9.108;2022-09-14T03:02:08;17.10;99.90
3086;DHT22;52812;48.960;9.108;2022-09-14T03:04:34;17.10;99.90
3086;DHT22;52812;48.960;9.108;2022-09-14T03:07:00;17.10;99.90
3086;DHT22;52812;48.960;9.108;2022-09-14T03:09:25;17.10;99.90
3086;DHT22;52812;48.960;9.108;2022-09-14T03:11:51;17.10;99.90
3086;DHT22;52812;48.960;9.108;2022-09-14T03:14:16;17.10;99.90
3086;DHT22;52812;48.960;9.108;2022-09-14T03:16:42;17.10;99.90
3086;DHT22;52812;48.960;9.108;2022-09-14T03:19:07;17.10;99.90
3086;DHT22;52812;48.960;9.108;2022-09-14T03:21:37;17.10;99.90
3086;DHT22;52812;48.960;9.108;2022-09-14T03:24:03;17.10;99.90
3086;DHT22;52812;48.960;9.108;2022-09-14T03:26:28;17.10;99.90
3086;DHT22;52812;48.960;9.108;2022-09-14T03:28:57;17.00;99.90
3086;DHT22;52812;48.960;9.108;2022-09-14T03:31:24;17.00;99.90
3086;DHT22;52812;48.960;9.108;2022-09-14T03:33:55;17.00;99.90
3086;DHT22;52812;48.960;9.108;2022-09-14T03:36:21;17.00;99.90
3086;DHT22;52812;48.960;9.108;2022-09-14T03:38:50;17.00;99.90
3086;DHT22;52812;48.960;9.108;2022-09-14T03:41:16;17.00;99.90
3086;DHT22;52812;48.960;9.108;2022-09-14T03:43:42;17.00;99.90
3086;DHT22;52812;48.960;9.108;2022-09-14T03:46:10;17.00;99.90
3086;DHT22;52812;48.960;9.108;2022-09-14T03:48:36;17.00;99.90
3086;DHT22;52812;48.960;9.108;2022-09-14T03:51:04;17.00;99.90
3086;DHT22;52812;48.960;9.108;2022-09-14T03:53:30;17.00;99.90
3086;DHT22;52812;48.960;9.108;2022-09-14T03:55:56;17.00;99.90
3086;DHT22;52812;48.960;9.108;2022-09-14T03:58:22;17.00;99.90
3086;DHT22;52812;48.960;9.108;2022-09-14T04:00:48;17.00;99.90
3086;DHT22;52812;48.960;9.108;2022-09-14T04:03:14;17.00;99.90
3086;DHT22;52812;48.960;9.108;2022-09-14T04:05:39;17.00;99.90
3086;DHT22;52812;48.960;9.108;2022-09-14T04:08:05;17.00;99.90
3086;DHT22;52812;48.960;9.108;2022-09-14T04:10:31;17.00;99.90
3086;DHT22;52812;48.960;9.108;2022-09-14T04:12:57;17.00;99.90
3086;DHT22;52812;48.960;9.108;2022-09-14T04:15:23;17.00;99.90
3086;DHT22;52812;48.960;9.108;2022-09-14T04:17:48;17.00;99.90
3086;DHT22;52812;48.960;9.108;2022-09-14T04:20:14;17.00;99.90
3086;DHT22;52812;48.960;9.108;2022-09-14T04:22:40;17.00;99.90
3086;DHT22;52812;48.960;9.108;2022-09-14T04:25:06;17.00;99.90
3086;DHT22;52812;48.960;9.108;2022-09-14T04:27:31;17.00;99.90
3086;DHT22;52812;48.960;9.108;2022-09-14T04:29:57;17.00;99.90
3086;DHT22;52812;48.960;9.108;2022-09-14T04:32:23;17.00;99.90
3086;DHT22;52812;48.960;9.108;2022-09-14T04:34:48;17.10;99.90
3086;DHT22;52812;48.960;9.108;2022-09-14T04:37:14;17.10;99.90
3086;DHT22;52812;48.960;9.108;2022-09-14T04:39:39;17.00;99.90
3086;DHT22;52812;48.960;9.108;2022-09-14T04:42:05;17.10;99.90
3086;DHT22;52812;48.960;9.108;2022-09-14T04:44:31;17.10;99.90
3086;DHT22;52812;48.960;9.108;2022-09-14T04:46:57;17.10;99.90
3086;DHT22;52812;48.960;9.108;2022-09-14T04:49:22;17.00;99.90
3086;DHT22;52812;48.960;9.108;2022-09-14T04:51:48;17.00;99.90
3086;DHT22;52812;48.960;9.108;2022-09-14T04:54:15;17.00;99.90
3086;DHT22;52812;48.960;9.108;2022-09-14T04:56:41;17.00;99.90
3086;DHT22;52812;48.960;9.108;2022-09-14T04:59:07;17.00;99.90
3086;DHT22;52812;48.960;9.108;2022-09-14T05:01:38;17.10;99.90
3086;DHT22;52812;48.960;9.108;2022-09-14T05:04:05;17.10;99.90
3086;DHT22;52812;48.960;9.108;2022-09-14T05:06:34;17.10;99.90
3086;DHT22;52812;48.960;9.108;2022-09-14T05:09:02;17.10;99.90
3086;DHT22;52812;48.960;9.108;2022-09-14T05:11:29;17.10;99.90
3086;DHT22;52812;48.960;9.108;2022-09-14T05:13:57;17.10;99.90
3086;DHT22;52812;48.960;9.108;2022-09-14T05:16:31;17.10;99.90
3086;DHT22;52812;48.960;9.108;2022-09-14T05:18:59;17.10;99.90
3086;DHT22;52812;48.960;9.108;2022-09-14T05:21:27;17.10;99.90
3086;DHT22;52812;48.960;9.108;2022-09-14T05:23:55;17.10;99.90
3086;DHT22;52812;48.960;9.108;2022-09-14T05:26:22;17.10;99.90
3086;DHT22;52812;48.960;9.108;2022-09-14T05:28:54;17.20;99.90
3086;DHT22;52812;48.960;9.108;2022-09-14T05:31:20;17.20;99.90
3086;DHT22;52812;48.960;9.108;2022-09-14T05:33:48;17.20;99.90
3086;DHT22;52812;48.960;9.108;2022-09-14T05:36:14;17.30;99.90
3086;DHT22;52812;48.960;9.108;2022-09-14T05:38:39;17.30;99.90
3086;DHT22;52812;48.960;9.108;2022-09-14T05:41:07;17.40;99.90
3086;DHT22;52812;48.960;9.108;2022-09-14T05:43:32;17.40;99.90
3086;DHT22;52812;48.960;9.108;2022-09-14T05:46:06;17.50;99.90
3086;DHT22;52812;48.960;9.108;2022-09-14T05:48:34;17.50;99.90
3086;DHT22;52812;48.960;9.108;2022-09-14T05:51:01;17.60;99.90
3086;DHT22;52812;48.960;9.108;2022-09-14T05:53:27;17.60;99.90
3086;DHT22;52812;48.960;9.108;2022-09-14T05:56:19;17.60;99.90
3086;DHT22;52812;48.960;9.108;2022-09-14T05:58:45;17.60;99.90
3086;DHT22;52812;48.960;9.108;2022-09-14T06:01:14;17.70;99.90
3086;DHT22;52812;48.960;9.108;2022-09-14T06:03:40;17.70;99.90
3086;DHT22;52812;48.960;9.108;2022-09-14T06:06:07;17.70;99.90
3086;DHT22;52812;48.960;9.108;2022-09-14T06:08:34;17.80;99.90
3086;DHT22;52812;48.960;9.108;2022-09-14T06:11:04;17.80;99.90
3086;DHT22;52812;48.960;9.108;2022-09-14T06:13:30;17.80;99.90
3086;DHT22;52812;48.960;9.108;2022-09-14T06:16:07;17.90;99.90
3086;DHT22;52812;48.960;9.108;2022-09-14T06:18:34;18.00;99.90
3086;DHT22;52812;48.960;9.108;2022-09-14T06:21:00;18.00;99.90
3086;DHT22;52812;48.960;9.108;2022-09-14T06:23:26;18.00;99.90
3086;DHT22;52812;48.960;9.108;2022-09-14T06:25:57;18.10;99.90
3086;DHT22;52812;48.960;9.108;2022-09-14T06:28:23;18.20;99.90
3086;DHT22;52812;48.960;9.108;2022-09-14T06:30:49;18.20;99.90
3086;DHT22;52812;48.960;9.108;2022-09-14T06:33:16;18.40;99.90
3086;DHT22;52812;48.960;9.108;2022-09-14T06:35:42;18.40;99.90
3086;DHT22;52812;48.960;9.108;2022-09-14T06:38:11;18.40;99.90
3086;DHT22;52812;48.960;9.108;2022-09-14T06:40:36;18.60;99.90
3086;DHT22;52812;48.960;9.108;2022-09-14T06:43:02;18.60;99.90
3086;DHT22;52812;48.960;9.108;2022-09-14T06:45:29;18.70;99.90
3086;DHT22;52812;48.960;9.108;2022-09-14T06:47:57;18.80;99.90
3086;DHT22;52812;48.960;9.108;2022-09-14T06:50:23;18.80;99.90
3086;DHT22;52812;48.960;9.108;2022-09-14T06:52:49;18.90;99.90
3086;DHT22;52812;48.960;9.108;2022-09-14T06:55:15;19.00;99.90
3086;DHT22;52812;48.960;9.108;2022-09-14T06:57:40;19.00;99.90
3086;DHT22;52812;48.960;9.108;2022-09-14T07:00:06;19.00;99.90
3086;DHT22;52812;48.960;9.108;2022-09-14T07:02:33;19.10;99.90
3086;DHT22;52812;48.960;9.108;2022-09-14T07:04:58;19.20;99.90
3086;DHT22;52812;48.960;9.108;2022-09-14T07:07:27;19.30;99.90
3086;DHT22;52812;48.960;9.108;2022-09-14T07:09:52;19.50;99.90
3086;DHT22;52812;48.960;9.108;2022-09-14T07:12:18;19.80;99.90
3086;DHT22;52812;48.960;9.108;2022-09-14T07:14:43;20.30;99.90
3086;DHT22;52812;48.960;9.108;2022-09-14T07:17:09;20.70;99.90
3086;DHT22;52812;48.960;9.108;2022-09-14T07:19:34;20.60;99.90
3086;DHT22;52812;48.960;9.108;2022-09-14T07:22:00;20.60;99.90
3086;DHT22;52812;48.960;9.108;2022-09-14T07:24:26;20.70;99.90
3086;DHT22;52812;48.960;9.108;2022-09-14T07:26:52;20.70;99.90
3086;DHT22;52812;48.960;9.108;2022-09-14T07:29:18;20.70;99.90
3086;DHT22;52812;48.960;9.108;2022-09-14T07:31:49;20.90;99.90
3086;DHT22;52812;48.960;9.108;2022-09-14T07:34:15;21.30;99.90
3086;DHT22;52812;48.960;9.108;2022-09-14T07:36:42;21.40;99.90
3086;DHT22;52812;48.960;9.108;2022-09-14T07:39:10;21.30;99.90
3086;DHT22;52812;48.960;9.108;2022-09-14T07:41:36;21.10;99.90
3086;DHT22;52812;48.960;9.108;2022-09-14T07:44:03;21.00;99.90
3086;DHT22;52812;48.960;9.108;2022-09-14T07:46:31;20.70;99.90
3086;DHT22;52812;48.960;9.108;2022-09-14T07:49:01;20.70;99.90
3086;DHT22;52812;48.960;9.108;2022-09-14T07:51:28;20.60;99.90
3086;DHT22;52812;48.960;9.108;2022-09-14T07:53:54;20.60;99.90
3086;DHT22;52812;48.960;9.108;2022-09-14T07:56:20;20.50;99.90
3086;DHT22;52812;48.960;9.108;2022-09-14T07:58:47;20.40;99.90
3086;DHT22;52812;48.960;9.108;2022-09-14T08:01:15;20.40;99.90
3086;DHT22;52812;48.960;9.108;2022-09-14T08:03:44;20.30;99.90
3086;DHT22;52812;48.960;9.108;2022-09-14T08:06:17;20.40;99.90
3086;DHT22;52812;48.960;9.108;2022-09-14T08:08:44;20.50;99.90
3086;DHT22;52812;48.960;9.108;2022-09-14T08:13:40;20.70;99.90
3086;DHT22;52812;48.960;9.108;2022-09-14T08:16:07;20.80;99.90
3086;DHT22;52812;48.960;9.108;2022-09-14T08:18:34;20.80;99.90
3086;DHT22;52812;48.960;9.108;2022-09-14T08:21:11;20.80;99.90
3086;DHT22;52812;48.960;9.108;2022-09-14T08:23:38;20.80;99.90
3086;DHT22;52812;48.960;9.108;2022-09-14T08:26:05;20.80;99.90
3086;DHT22;52812;48.960;9.108;2022-09-14T08:28:32;20.70;99.90
3086;DHT22;52812;48.960;9.108;2022-09-14T08:31:12;20.80;99.90
3086;DHT22;52812;48.960;9.108;2022-09-14T08:33:40;20.80;99.90
3086;DHT22;52812;48.960;9.108;2022-09-14T08:36:07;20.90;99.90
3086;DHT22;52812;48.960;9.108;2022-09-14T08:38:33;21.00;99.90
3086;DHT22;52812;48.960;9.108;2022-09-14T08:41:25;21.10;99.90
3086;DHT22;52812;48.960;9.108;2022-09-14T08:43:52;21.10;99.90
3086;DHT22;52812;48.960;9.108;2022-09-14T08:48:52;21.10;99.90
3086;DHT22;52812;48.960;9.108;2022-09-14T08:51:18;21.20;99.90
3086;DHT22;52812;48.960;9.108;2022-09-14T08:53:44;21.40;99.90
3086;DHT22;52812;48.960;9.108;2022-09-14T08:56:46;21.60;99.90
3086;DHT22;52812;48.960;9.108;2022-09-14T09:07:10;22.10;99.90
3086;DHT22;52812;48.960;9.108;2022-09-14T09:09:42;22.20;99.90
3086;DHT22;52812;48.960;9.108;2022-09-14T09:12:21;22.30;99.90
3086;DHT22;52812;48.960;9.108;2022-09-14T09:14:53;22.50;99.90
3086;DHT22;52812;48.960;9.108;2022-09-14T09:17:26;22.60;99.90
3086;DHT22;52812;48.960;9.108;2022-09-14T09:20:05;22.60;99.90
3086;DHT22;52812;48.960;9.108;2022-09-14T09:22:42;22.80;99.90
3086;DHT22;52812;48.960;9.108;2022-09-14T09:25:23;23.00;99.90
3086;DHT22;52812;48.960;9.108;2022-09-14T09:28:00;23.20;99.90
3086;DHT22;52812;48.960;9.108;2022-09-14T09:30:27;23.40;99.90
3086;DHT22;52812;48.960;9.108;2022-09-14T09:32:54;23.40;99.90
3086;DHT22;52812;48.960;9.108;2022-09-14T09:35:22;23.40;99.90
3086;DHT22;52812;48.960;9.108;2022-09-14T09:37:48;23.30;99.90
3086;DHT22;52812;48.960;9.108;2022-09-14T09:40:19;23.40;99.90
3086;DHT22;52812;48.960;9.108;2022-09-14T09:43:12;23.70;99.90
3086;DHT22;52812;48.960;9.108;2022-09-14T09:46:03;23.80;99.90
3086;DHT22;52812;48.960;9.108;2022-09-14T09:48:40;24.00;99.90
3086;DHT22;52812;48.960;9.108;2022-09-14T09:51:33;24.20;99.90
3086;DHT22;52812;48.960;9.108;2022-09-14T09:59:35;24.20;99.90
3086;DHT22;52812;48.960;9.108;2022-09-14T10:05:21;24.20;99.90
3086;DHT22;52812;48.960;9.108;2022-09-14T10:08:00;24.20;99.90
3086;DHT22;52812;48.960;9.108;2022-09-14T10:13:05;24.50;99.90
3086;DHT22;52812;48.960;9.108;2022-09-14T10:15:38;25.00;99.90
3086;DHT22;52812;48.960;9.108;2022-09-14T10:20:31;25.30;99.90
3086;DHT22;52812;48.960;9.108;2022-09-14T10:25:42;25.30;99.90
3086;DHT22;52812;48.960;9.108;2022-09-14T10:28:24;25.30;99.90
3086;DHT22;52812;48.960;9.108;2022-09-14T10:33:45;25.50;99.90
3086;DHT22;52812;48.960;9.108;2022-09-14T10:36:36;25.60;99.90
3086;DHT22;52812;48.960;9.108;2022-09-14T10:39:22;25.70;99.90
3086;DHT22;52812;48.960;9.108;2022-09-14T10:42:00;25.60;99.90
3086;DHT22;52812;48.960;9.108;2022-09-14T10:50:04;25.90;99.90
3086;DHT22;52812;48.960;9.108;2022-09-14T11:01:23;25.80;99.90
3086;DHT22;52812;48.960;9.108;2022-09-14T11:14:41;26.00;99.90
3086;DHT22;52812;48.960;9.108;2022-09-14T11:17:33;25.90;99.90
3086;DHT22;52812;48.960;9.108;2022-09-14T11:25:48;25.80;99.90
3086;DHT22;52812;48.960;9.108;2022-09-14T11:28:30;26.00;99.90
3086;DHT22;52812;48.960;9.108;2022-09-14T11:31:09;26.00;99.90
3086;DHT22;52812;48.960;9.108;2022-09-14T11:33:44;26.10;99.90
3086;DHT22;52812;48.960;9.108;2022-09-14T11:36:36;26.00;99.90
3086;DHT22;52812;48.960;9.108;2022-09-14T11:39:22;25.90;99.90
3086;DHT22;52812;48.960;9.108;2022-09-14T11:42:26;25.70;99.90
3086;DHT22;52812;48.960;9.108;2022-09-14T11:45:28;25.70;99.90
3086;DHT22;52812;48.960;9.108;2022-09-14T11:50:41;26.10;99.90
3086;DHT22;52812;48.960;9.108;2022-09-14T11:53:13;26.40;99.90
3086;DHT22;52812;48.960;9.108;2022-09-14T11:55:45;26.50;99.90
3086;DHT22;52812;48.960;9.108;2022-09-14T11:58:20;26.50;99.90
3086;DHT22;52812;48.960;9.108;2022-09-14T12:01:04;26.40;99.90
3086;DHT22;52812;48.960;9.108;2022-09-14T12:11:50;26.20;99.90
3086;DHT22;52812;48.960;9.108;2022-09-14T12:17:25;26.30;99.90
3086;DHT22;52812;48.960;9.108;2022-09-14T12:19:56;26.20;99.90
3086;DHT22;52812;48.960;9.108;2022-09-14T12:22:34;26.20;99.90
3086;DHT22;52812;48.960;9.108;2022-09-14T12:27:30;25.90;99.90
3086;DHT22;52812;48.960;9.108;2022-09-14T12:29:58;25.80;99.90
3086;DHT22;52812;48.960;9.108;2022-09-14T12:32:38;25.60;99.90
3086;DHT22;52812;48.960;9.108;2022-09-14T12:37:59;25.20;99.90
3086;DHT22;52812;48.960;9.108;2022-09-14T12:40:44;25.00;99.90
3086;DHT22;52812;48.960;9.108;2022-09-14T12:59:11;23.40;99.90
3086;DHT22;52812;48.960;9.108;2022-09-14T13:04:30;23.00;99.90
3086;DHT22;52812;48.960;9.108;2022-09-14T13:06:59;22.80;99.90
3086;DHT22;52812;48.960;9.108;2022-09-14T13:09:27;22.60;99.90
3086;DHT22;52812;48.960;9.108;2022-09-14T13:12:07;22.30;99.90
3086;DHT22;52812;48.960;9.108;2022-09-14T13:14:50;21.90;99.90
3086;DHT22;52812;48.960;9.108;2022-09-14T13:17:17;21.50;99.90
3086;DHT22;52812;48.960;9.108;2022-09-14T13:19:56;21.10;99.90
3086;DHT22;52812;48.960;9.108;2022-09-14T13:22:24;20.70;99.90
3086;DHT22;52812;48.960;9.108;2022-09-14T13:24:50;20.10;99.90
3086;DHT22;52812;48.960;9.108;2022-09-14T13:27:27;19.70;99.90
3086;DHT22;52812;48.960;9.108;2022-09-14T13:30:06;19.40;99.90
3086;DHT22;52812;48.960;9.108;2022-09-14T13:32:34;19.30;99.90
3086;DHT22;52812;48.960;9.108;2022-09-14T13:35:02;19.30;99.90
3086;DHT22;52812;48.960;9.108;2022-09-14T13:37:28;19.40;99.90
3086;DHT22;52812;48.960;9.108;2022-09-14T13:39:55;19.40;99.90
3086;DHT22;52812;48.960;9.108;2022-09-14T13:42:22;19.50;99.90
3086;DHT22;52812;48.960;9.108;2022-09-14T13:44:49;19.50;99.90
3086;DHT22;52812;48.960;9.108;2022-09-14T13:47:19;19.50;99.90
3086;DHT22;52812;48.960;9.108;2022-09-14T13:49:46;19.60;99.90
3086;DHT22;52812;48.960;9.108;2022-09-14T13:55:07;19.70;99.90
3086;DHT22;52812;48.960;9.108;2022-09-14T13:57:34;19.80;99.90
3086;DHT22;52812;48.960;9.108;2022-09-14T14:00:18;19.80;99.90
3086;DHT22;52812;48.960;9.108;2022-09-14T14:02:48;19.70;99.90
3086;DHT22;52812;48.960;9.108;2022-09-14T14:05:24;19.80;99.90
3086;DHT22;52812;48.960;9.108;2022-09-14T14:07:53;19.80;99.90
3086;DHT22;52812;48.960;9.108;2022-09-14T14:10:24;19.80;99.90
3086;DHT22;52812;48.960;9.108;2022-09-14T14:12:50;19.80;99.90
3086;DHT22;52812;48.960;9.108;2022-09-14T14:17:45;19.80;99.90
3086;DHT22;52812;48.960;9.108;2022-09-14T14:20:27;19.90;99.90
3086;DHT22;52812;48.960;9.108;2022-09-14T14:23:00;19.90;99.90
3086;DHT22;52812;48.960;9.108;2022-09-14T14:25:34;20.00;99.90
3086;DHT22;52812;48.960;9.108;2022-09-14T14:28:13;20.00;99.90
3086;DHT22;52812;48.960;9.108;2022-09-14T14:30:40;20.10;99.90
3086;DHT22;52812;48.960;9.108;2022-09-14T14:33:14;20.10;99.90
3086;DHT22;52812;48.960;9.108;2022-09-14T14:35:43;20.10;99.90
3086;DHT22;52812;48.960;9.108;2022-09-14T14:38:09;20.10;99.90
3086;DHT22;52812;48.960;9.108;2022-09-14T14:40:35;20.20;99.90
3086;DHT22;52812;48.960;9.108;2022-09-14T14:43:02;20.20;99.90
3086;DHT22;52812;48.960;9.108;2022-09-14T14:45:28;20.30;99.90
3086;DHT22;52812;48.960;9.108;2022-09-14T14:47:56;20.30;99.90
3086;DHT22;52812;48.960;9.108;2022-09-14T14:50:25;20.20;99.90
3086;DHT22;52812;48.960;9.108;2022-09-14T14:52:52;20.20;99.90
3086;DHT22;52812;48.960;9.108;2022-09-14T14:55:19;20.20;99.90
3086;DHT22;52812;48.960;9.108;2022-09-14T14:57:46;20.10;99.90
3086;DHT22;52812;48.960;9.108;2022-09-14T15:00:17;20.20;99.90
3086;DHT22;52812;48.960;9.108;2022-09-14T15:02:44;20.20;99.90
3086;DHT22;52812;48.960;9.108;2022-09-14T15:05:10;20.20;99.90
3086;DHT22;52812;48.960;9.108;2022-09-14T15:07:36;20.20;99.90
3086;DHT22;52812;48.960;9.108;2022-09-14T15:10:02;20.20;99.90
3086;DHT22;52812;48.960;9.108;2022-09-14T15:12:29;20.20;99.90
3086;DHT22;52812;48.960;9.108;2022-09-14T15:14:56;20.20;99.90
3086;DHT22;52812;48.960;9.108;2022-09-14T15:17:22;20.10;99.90
3086;DHT22;52812;48.960;9.108;2022-09-14T15:19:47;20.10;99.90
3086;DHT22;52812;48.960;9.108;2022-09-14T15:22:13;20.10;99.90
3086;DHT22;52812;48.960;9.108;2022-09-14T15:24:38;20.10;99.90
3086;DHT22;52812;48.960;9.108;2022-09-14T15:27:04;20.10;99.90
3086;DHT22;52812;48.960;9.108;2022-09-14T15:29:30;20.00;99.90
3086;DHT22;52812;48.960;9.108;2022-09-14T15:31:57;19.90;99.90
3086;DHT22;52812;48.960;9.108;2022-09-14T15:34:23;19.90;99.90
3086;DHT22;52812;48.960;9.108;2022-09-14T15:36:51;20.00;99.90
3086;DHT22;52812;48.960;9.108;2022-09-14T15:39:22;19.90;99.90
3086;DHT22;52812;48.960;9.108;2022-09-14T15:41:48;19.90;99.90
3086;DHT22;52812;48.960;9.108;2022-09-14T15:44:14;20.00;99.90
3086;DHT22;52812;48.960;9.108;2022-09-14T15:46:40;20.00;99.90
3086;DHT22;52812;48.960;9.108;2022-09-14T15:49:07;20.10;99.90
3086;DHT22;52812;48.960;9.108;2022-09-14T15:51:33;20.10;99.90
3086;DHT22;52812;48.960;9.108;2022-09-14T15:54:00;20.20;99.90
3086;DHT22;52812;48.960;9.108;2022-09-14T15:56:26;20.20;99.90
3086;DHT22;52812;48.960;9.108;2022-09-14T15:58:51;20.20;99.90
3086;DHT22;52812;48.960;9.108;2022-09-14T16:01:18;20.20;99.90
3086;DHT22;52812;48.960;9.108;2022-09-14T16:03:44;20.20;99.90
3086;DHT22;52812;48.960;9.108;2022-09-14T16:06:13;20.20;99.90
3086;DHT22;52812;48.960;9.108;2022-09-14T16:08:40;20.10;99.90
3086;DHT22;52812;48.960;9.108;2022-09-14T16:11:07;20.00;99.90
3086;DHT22;52812;48.960;9.108;2022-09-14T16:13:34;20.00;99.90
3086;DHT22;52812;48.960;9.108;2022-09-14T16:16:11;20.00;99.90
3086;DHT22;52812;48.960;9.108;2022-09-14T16:18:38;19.90;99.90
3086;DHT22;52812;48.960;9.108;2022-09-14T16:21:12;19.80;99.90
3086;DHT22;52812;48.960;9.108;2022-09-14T16:23:50;19.80;99.90
3086;DHT22;52812;48.960;9.108;2022-09-14T16:26:23;19.70;99.90
3086;DHT22;52812;48.960;9.108;2022-09-14T16:28:50;19.70;99.90
3086;DHT22;52812;48.960;9.108;2022-09-14T16:31:22;19.60;99.90
3086;DHT22;52812;48.960;9.108;2022-09-14T16:33:50;19.60;99.90
3086;DHT22;52812;48.960;9.108;2022-09-14T16:36:20;19.60;99.90
3086;DHT22;52812;48.960;9.108;2022-09-14T16:38:46;19.60;99.90
3086;DHT22;52812;48.960;9.108;2022-09-14T16:41:12;19.50;99.90
3086;DHT22;52812;48.960;9.108;2022-09-14T16:43:38;19.40;99.90
3086;DHT22;52812;48.960;9.108;2022-09-14T16:46:07;19.40;99.90
3086;DHT22;52812;48.960;9.108;2022-09-14T16:48:34;19.40;99.90
3086;DHT22;52812;48.960;9.108;2022-09-14T16:51:01;19.30;99.90
3086;DHT22;52812;48.960;9.108;2022-09-14T16:53:28;19.20;99.90
3086;DHT22;52812;48.960;9.108;2022-09-14T16:58:30;19.10;99.90
3086;DHT22;52812;48.960;9.108;2022-09-14T17:00:59;19.10;99.90
3086;DHT22;52812;48.960;9.108;2022-09-14T17:03:28;19.00;99.90
3086;DHT22;52812;48.960;9.108;2022-09-14T17:05:59;18.90;99.90
3086;DHT22;52812;48.960;9.108;2022-09-14T17:08:25;18.90;99.90
3086;DHT22;52812;48.960;9.108;2022-09-14T17:10:51;18.90;99.90
3086;DHT22;52812;48.960;9.108;2022-09-14T17:13:16;18.80;99.90
3086;DHT22;52812;48.960;9.108;2022-09-14T17:15:42;18.80;99.90
3086;DHT22;52812;48.960;9.108;2022-09-14T17:18:08;18.80;99.90
3086;DHT22;52812;48.960;9.108;2022-09-14T17:20:33;18.80;99.90
3086;DHT22;52812;48.960;9.108;2022-09-14T17:22:59;18.70;99.90
3086;DHT22;52812;48.960;9.108;2022-09-14T17:25:24;18.70;99.90
3086;DHT22;52812;48.960;9.108;2022-09-14T17:27:50;18.70;99.90
3086;DHT22;52812;48.960;9.108;2022-09-14T17:30:16;18.60;99.90
3086;DHT22;52812;48.960;9.108;2022-09-14T17:32:41;18.50;99.90
3086;DHT22;52812;48.960;9.108;2022-09-14T17:35:07;18.40;99.90
3086;DHT22;52812;48.960;9.108;2022-09-14T17:37:33;18.40;99.90
3086;DHT22;52812;48.960;9.108;2022-09-14T17:39:58;18.30;99.90
3086;DHT22;52812;48.960;9.108;2022-09-14T17:42:24;18.30;99.90
3086;DHT22;52812;48.960;9.108;2022-09-14T17:44:49;18.30;99.90
3086;DHT22;52812;48.960;9.108;2022-09-14T17:47:15;18.30;99.90
3086;DHT22;52812;48.960;9.108;2022-09-14T17:49:40;18.30;99.90
3086;DHT22;52812;48.960;9.108;2022-09-14T17:52:06;18.30;99.90
3086;DHT22;52812;48.960;9.108;2022-09-14T17:54:31;18.30;99.90
3086;DHT22;52812;48.960;9.108;2022-09-14T17:56:57;18.20;99.90
3086;DHT22;52812;48.960;9.108;2022-09-14T17:59:23;18.20;99.90
3086;DHT22;52812;48.960;9.108;2022-09-14T18:01:49;18.20;99.90
3086;DHT22;52812;48.960;9.108;2022-09-14T18:04:15;18.20;99.90
3086;DHT22;52812;48.960;9.108;2022-09-14T18:06:44;18.10;99.90
3086;DHT22;52812;48.960;9.108;2022-09-14T18:09:20;18.00;99.90
3086;DHT22;52812;48.960;9.108;2022-09-14T18:11:46;18.00;99.90
3086;DHT22;52812;48.960;9.108;2022-09-14T18:14:14;18.00;99.90
3086;DHT22;52812;48.960;9.108;2022-09-14T18:16:40;18.00;99.90
3086;DHT22;52812;48.960;9.108;2022-09-14T18:19:06;17.90;99.90